Observations for LUTON AIRPORT, United Kingdom (EGGW)

EGGW 260450Z AUTO 21002KT 9999 NCD 16/13 Q1018  
EGGW 260420Z AUTO 19003KT 9999 NCD 17/14 Q1018  
EGGW 260350Z AUTO 20003KT 9999 NCD 17/14 Q1019  
EGGW 260320Z AUTO 17004KT 9999 NCD 16/13 Q1019  
EGGW 260250Z AUTO 16003KT 9999 NCD 16/13 Q1019  
EGGW 260220Z AUTO 17003KT 9999 NCD 17/13 Q1019  
EGGW 260150Z AUTO 18003KT 9999 NCD 17/13 Q1019  
EGGW 260120Z AUTO 19003KT 9999 NCD 18/13 Q1019  
EGGW 260050Z AUTO 16003KT 9999 NCD 18/13 Q1019  
EGGW 260020Z AUTO 15004KT 9999 NCD 18/13 Q1019  
EGGW 252350Z AUTO 15002KT 9999 NCD 18/13 Q1019  
EGGW 252320Z AUTO 13006KT 9999 NCD 20/13 Q1019  
EGGW 252250Z AUTO 11005KT 9999 NCD 19/13 Q1019  
EGGW 252220Z AUTO 12005KT 9999 NCD 20/13 Q1019  
EGGW 252150Z AUTO 13007KT 9999 NCD 21/13 Q1019  
EGGW 252120Z AUTO 13006KT 9999 NCD 22/13 Q1019  
EGGW 252050Z AUTO 13005KT 9999 NCD 22/13 Q1019  
EGGW 252020Z AUTO 13006KT 9999 NCD 23/13 Q1019  
EGGW 251950Z AUTO 14007KT 9999 NCD 25/13 Q1019  
EGGW 251920Z AUTO 15005KT 9999 NCD 25/13 Q1019  
EGGW 251850Z AUTO 18002KT 9999 NCD 27/13 Q1018  
EGGW 251820Z AUTO 15004KT 9999 NCD 28/12 Q1018  
EGGW 251750Z AUTO 15003KT 9999 NCD 29/12 Q1018  
EGGW 251720Z AUTO 18004KT 140V230 9999 NCD 30/11 Q1018  
EGGW 251650Z AUTO 16005KT 130V210 9999 NCD 30/10 Q1018  
EGGW 251620Z AUTO 19006KT 150V230 9999 NCD 30/10 Q1018  
EGGW 251550Z AUTO 15007KT 110V180 9999 NCD 30/11 Q1018  
EGGW 251520Z AUTO 14006KT 090V170 9999 NCD 30/11 Q1018  
EGGW 251450Z AUTO 14005KT 100V220 9999 NCD 31/10 Q1018  
EGGW 251420Z AUTO 15007KT 120V200 9999 NCD 30/09 Q1018  
EGGW 251350Z AUTO 20005KT 140V230 9999 NCD 31/09 Q1018  
EGGW 251320Z AUTO 16006KT 100V220 9999 NCD 30/09 Q1018  
EGGW 251250Z AUTO 18005KT 120V260 9999 NCD 30/09 Q1018  
EGGW 251220Z AUTO 16005KT 070V200 9999 NCD 30/09 Q1018  
EGGW 251150Z AUTO 15006KT 100V220 9999 NCD 29/10 Q1018  
EGGW 251120Z AUTO 15006KT 090V200 9999 NCD 29/11 Q1018  
EGGW 251050Z AUTO 14007KT 110V180 9999 NCD 28/10 Q1018  
EGGW 251020Z AUTO 14006KT 110V180 9999 NCD 27/13 Q1019  
EGGW 250950Z AUTO 12005KT 100V170 9999 NCD 26/15 Q1019  
EGGW 250920Z AUTO 13005KT 090V160 8000 NCD 24/16 Q1018  
EGGW 250850Z 11004KT CAVOK 24/16 Q1018  
EGGW 250820Z AUTO 13006KT 9999 NCD 22/15 Q1018  
EGGW 250750Z AUTO 12006KT 8000 NCD 21/16 Q1018  
EGGW 250720Z AUTO 11003KT 6000 NCD 19/16 Q1018  
EGGW 250650Z AUTO 11003KT 5000 HZ NCD 18/15 Q1018   
EGGW 250620Z AUTO 11003KT 3900 HZ NCD 15/14 Q1018   
EGGW 250550Z AUTO 10003KT 4700 HZ NCD 15/13 Q1018   
EGGW 250520Z AUTO 11002KT 5000 HZ NCD 15/13 Q1017   
EGGW 250450Z AUTO 12002KT 5000 HZ NCD 14/13 Q1017   
EGGW 250420Z AUTO 10003KT 6000 NCD 15/13 Q1017